sensor_id;sensor_type;location;lat;lon;timestamp;temperature;humidity
4433;DHT22;2229;48.708;9.706;2023-04-15T00:01:25;6.20;86.40
4433;DHT22;2229;48.708;9.706;2023-04-15T00:03:53;6.20;86.70
4433;DHT22;2229;48.708;9.706;2023-04-15T00:06:20;6.20;86.80
4433;DHT22;2229;48.708;9.706;2023-04-15T00:08:49;6.20;87.00
4433;DHT22;2229;48.708;9.706;2023-04-15T00:11:17;6.10;87.80
4433;DHT22;2229;48.708;9.706;2023-04-15T00:13:45;6.20;87.60
4433;DHT22;2229;48.708;9.706;2023-04-15T00:16:13;6.20;87.80
4433;DHT22;2229;48.708;9.706;2023-04-15T00:18:41;6.30;88.10
4433;DHT22;2229;48.708;9.706;2023-04-15T00:21:08;6.30;88.20
4433;DHT22;2229;48.708;9.706;2023-04-15T00:23:35;6.30;88.20
4433;DHT22;2229;48.708;9.706;2023-04-15T00:26:04;6.40;88.50
4433;DHT22;2229;48.708;9.706;2023-04-15T00:28:32;6.40;88.30
4433;DHT22;2229;48.708;9.706;2023-04-15T00:30:59;6.50;88.30
4433;DHT22;2229;48.708;9.706;2023-04-15T00:33:27;6.50;88.30
4433;DHT22;2229;48.708;9.706;2023-04-15T00:35:54;6.50;88.10
4433;DHT22;2229;48.708;9.706;2023-04-15T00:38:22;6.50;88.00
4433;DHT22;2229;48.708;9.706;2023-04-15T00:40:49;6.50;87.80
4433;DHT22;2229;48.708;9.706;2023-04-15T00:43:18;6.50;87.60
4433;DHT22;2229;48.708;9.706;2023-04-15T00:45:45;6.40;87.50
4433;DHT22;2229;48.708;9.706;2023-04-15T00:48:13;6.40;87.50
4433;DHT22;2229;48.708;9.706;2023-04-15T00:50:41;6.30;87.70
4433;DHT22;2229;48.708;9.706;2023-04-15T00:53:08;6.30;88.00
4433;DHT22;2229;48.708;9.706;2023-04-15T00:55:37;6.30;88.30
4433;DHT22;2229;48.708;9.706;2023-04-15T00:58:04;6.30;88.30
4433;DHT22;2229;48.708;9.706;2023-04-15T01:00:33;6.30;88.50
4433;DHT22;2229;48.708;9.706;2023-04-15T01:03:00;6.30;88.60
4433;DHT22;2229;48.708;9.706;2023-04-15T01:05:29;6.30;88.60
4433;DHT22;2229;48.708;9.706;2023-04-15T01:07:58;6.30;88.70
4433;DHT22;2229;48.708;9.706;2023-04-15T01:10:27;6.20;88.60
4433;DHT22;2229;48.708;9.706;2023-04-15T01:12:55;6.20;88.70
4433;DHT22;2229;48.708;9.706;2023-04-15T01:15:24;6.20;88.70
4433;DHT22;2229;48.708;9.706;2023-04-15T01:17:52;6.20;89.40
4433;DHT22;2229;48.708;9.706;2023-04-15T01:20:21;6.10;88.70
4433;DHT22;2229;48.708;9.706;2023-04-15T01:22:49;6.10;88.70
4433;DHT22;2229;48.708;9.706;2023-04-15T01:25:18;6.00;88.80
4433;DHT22;2229;48.708;9.706;2023-04-15T01:27:47;6.00;88.90
4433;DHT22;2229;48.708;9.706;2023-04-15T01:30:15;6.00;89.10
4433;DHT22;2229;48.708;9.706;2023-04-15T01:32:42;5.90;89.30
4433;DHT22;2229;48.708;9.706;2023-04-15T01:35:28;5.90;89.50
4433;DHT22;2229;48.708;9.706;2023-04-15T01:38:05;5.90;89.80
4433;DHT22;2229;48.708;9.706;2023-04-15T01:40:34;5.90;89.80
4433;DHT22;2229;48.708;9.706;2023-04-15T01:43:04;5.80;89.80
4433;DHT22;2229;48.708;9.706;2023-04-15T01:45:32;5.80;90.00
4433;DHT22;2229;48.708;9.706;2023-04-15T01:48:05;5.80;90.00
4433;DHT22;2229;48.708;9.706;2023-04-15T01:50:38;5.80;90.10
4433;DHT22;2229;48.708;9.706;2023-04-15T01:53:06;5.80;90.20
4433;DHT22;2229;48.708;9.706;2023-04-15T01:55:36;5.80;90.30
4433;DHT22;2229;48.708;9.706;2023-04-15T01:58:06;5.80;90.40
4433;DHT22;2229;48.708;9.706;2023-04-15T02:00:35;5.80;90.30
4433;DHT22;2229;48.708;9.706;2023-04-15T02:03:04;5.80;90.30
4433;DHT22;2229;48.708;9.706;2023-04-15T02:05:32;5.80;90.20
4433;DHT22;2229;48.708;9.706;2023-04-15T02:08:01;5.70;90.10
4433;DHT22;2229;48.708;9.706;2023-04-15T02:10:29;5.60;90.00
4433;DHT22;2229;48.708;9.706;2023-04-15T02:12:59;5.60;90.00
4433;DHT22;2229;48.708;9.706;2023-04-15T02:15:30;5.50;90.00
4433;DHT22;2229;48.708;9.706;2023-04-15T02:17:59;5.40;90.00
4433;DHT22;2229;48.708;9.706;2023-04-15T02:20:28;5.40;90.00
4433;DHT22;2229;48.708;9.706;2023-04-15T02:22:59;5.30;90.10
4433;DHT22;2229;48.708;9.706;2023-04-15T02:25:32;5.20;90.10
4433;DHT22;2229;48.708;9.706;2023-04-15T02:28:01;5.20;90.20
4433;DHT22;2229;48.708;9.706;2023-04-15T02:30:31;5.10;90.30
4433;DHT22;2229;48.708;9.706;2023-04-15T02:33:02;5.10;90.40
4433;DHT22;2229;48.708;9.706;2023-04-15T02:35:36;5.10;90.50
4433;DHT22;2229;48.708;9.706;2023-04-15T02:38:08;5.10;90.60
4433;DHT22;2229;48.708;9.706;2023-04-15T02:40:37;5.10;90.70
4433;DHT22;2229;48.708;9.706;2023-04-15T02:43:07;5.00;90.70
4433;DHT22;2229;48.708;9.706;2023-04-15T02:45:39;5.00;90.80
4433;DHT22;2229;48.708;9.706;2023-04-15T02:48:09;5.00;90.90
4433;DHT22;2229;48.708;9.706;2023-04-15T02:50:38;5.00;90.90
4433;DHT22;2229;48.708;9.706;2023-04-15T02:53:07;5.00;91.00
4433;DHT22;2229;48.708;9.706;2023-04-15T02:55:35;5.00;91.00
4433;DHT22;2229;48.708;9.706;2023-04-15T02:58:04;5.00;91.00
4433;DHT22;2229;48.708;9.706;2023-04-15T03:00:32;5.00;91.00
4433;DHT22;2229;48.708;9.706;2023-04-15T03:03:04;4.90;91.00
4433;DHT22;2229;48.708;9.706;2023-04-15T03:05:33;4.90;90.90
4433;DHT22;2229;48.708;9.706;2023-04-15T03:08:04;4.90;90.90
4433;DHT22;2229;48.708;9.706;2023-04-15T03:10:32;4.80;90.90
4433;DHT22;2229;48.708;9.706;2023-04-15T03:13:02;4.80;90.90
4433;DHT22;2229;48.708;9.706;2023-04-15T03:15:32;4.80;91.00
4433;DHT22;2229;48.708;9.706;2023-04-15T03:18:03;4.80;91.10
4433;DHT22;2229;48.708;9.706;2023-04-15T03:20:33;4.80;91.20
4433;DHT22;2229;48.708;9.706;2023-04-15T03:23:03;4.70;91.30
4433;DHT22;2229;48.708;9.706;2023-04-15T03:25:31;4.80;91.30
4433;DHT22;2229;48.708;9.706;2023-04-15T03:28:01;4.70;91.40
4433;DHT22;2229;48.708;9.706;2023-04-15T03:30:29;4.80;91.60
4433;DHT22;2229;48.708;9.706;2023-04-15T03:32:58;4.80;91.70
4433;DHT22;2229;48.708;9.706;2023-04-15T03:35:28;4.80;91.80
4433;DHT22;2229;48.708;9.706;2023-04-15T03:37:57;4.80;91.80
4433;DHT22;2229;48.708;9.706;2023-04-15T03:40:25;4.80;91.90
4433;DHT22;2229;48.708;9.706;2023-04-15T03:42:54;4.80;91.90
4433;DHT22;2229;48.708;9.706;2023-04-15T03:45:23;4.80;92.00
4433;DHT22;2229;48.708;9.706;2023-04-15T03:47:51;4.80;91.90
4433;DHT22;2229;48.708;9.706;2023-04-15T03:50:20;4.80;91.90
4433;DHT22;2229;48.708;9.706;2023-04-15T03:52:49;4.80;91.90
4433;DHT22;2229;48.708;9.706;2023-04-15T03:55:18;4.80;91.90
4433;DHT22;2229;48.708;9.706;2023-04-15T03:57:46;4.70;91.90
4433;DHT22;2229;48.708;9.706;2023-04-15T04:00:15;4.70;91.90
4433;DHT22;2229;48.708;9.706;2023-04-15T04:02:43;4.70;92.00
4433;DHT22;2229;48.708;9.706;2023-04-15T04:05:12;4.70;92.10
4433;DHT22;2229;48.708;9.706;2023-04-15T04:07:40;4.70;92.20
4433;DHT22;2229;48.708;9.706;2023-04-15T04:10:10;4.70;92.20
4433;DHT22;2229;48.708;9.706;2023-04-15T04:12:39;4.70;92.60
4433;DHT22;2229;48.708;9.706;2023-04-15T04:15:07;4.70;92.40
4433;DHT22;2229;48.708;9.706;2023-04-15T04:17:36;4.70;92.40
4433;DHT22;2229;48.708;9.706;2023-04-15T04:20:06;4.70;92.40
4433;DHT22;2229;48.708;9.706;2023-04-15T04:22:37;4.70;92.40
4433;DHT22;2229;48.708;9.706;2023-04-15T04:25:07;4.70;92.40
4433;DHT22;2229;48.708;9.706;2023-04-15T04:27:37;4.60;92.40
4433;DHT22;2229;48.708;9.706;2023-04-15T04:30:07;4.60;92.40
4433;DHT22;2229;48.708;9.706;2023-04-15T04:32:35;4.50;92.40
4433;DHT22;2229;48.708;9.706;2023-04-15T04:35:04;4.50;92.40
4433;DHT22;2229;48.708;9.706;2023-04-15T04:37:33;4.40;92.40
4433;DHT22;2229;48.708;9.706;2023-04-15T04:40:01;4.40;92.40
4433;DHT22;2229;48.708;9.706;2023-04-15T04:42:30;4.30;92.40
4433;DHT22;2229;48.708;9.706;2023-04-15T04:45:00;4.20;92.40
4433;DHT22;2229;48.708;9.706;2023-04-15T04:47:28;4.20;92.40
4433;DHT22;2229;48.708;9.706;2023-04-15T04:49:57;4.00;92.20
4433;DHT22;2229;48.708;9.706;2023-04-15T04:52:25;3.80;92.10
4433;DHT22;2229;48.708;9.706;2023-04-15T04:54:54;3.70;92.20
4433;DHT22;2229;48.708;9.706;2023-04-15T04:57:24;3.60;92.40
4433;DHT22;2229;48.708;9.706;2023-04-15T04:59:54;3.60;92.60
4433;DHT22;2229;48.708;9.706;2023-04-15T05:02:40;3.50;92.70
4433;DHT22;2229;48.708;9.706;2023-04-15T05:05:10;3.60;92.90
4433;DHT22;2229;48.708;9.706;2023-04-15T05:07:39;3.50;92.90
4433;DHT22;2229;48.708;9.706;2023-04-15T05:10:09;3.50;92.90
4433;DHT22;2229;48.708;9.706;2023-04-15T05:12:37;3.60;93.10
4433;DHT22;2229;48.708;9.706;2023-04-15T05:15:07;3.60;93.20
4433;DHT22;2229;48.708;9.706;2023-04-15T05:17:35;3.70;93.40
4433;DHT22;2229;48.708;9.706;2023-04-15T05:20:08;3.80;93.60
4433;DHT22;2229;48.708;9.706;2023-04-15T05:22:38;3.90;93.70
4433;DHT22;2229;48.708;9.706;2023-04-15T05:25:07;4.00;93.80
4433;DHT22;2229;48.708;9.706;2023-04-15T05:27:38;4.00;93.70
4433;DHT22;2229;48.708;9.706;2023-04-15T05:30:07;4.10;93.70
4433;DHT22;2229;48.708;9.706;2023-04-15T05:32:36;4.20;93.70
4433;DHT22;2229;48.708;9.706;2023-04-15T05:35:05;4.20;93.70
4433;DHT22;2229;48.708;9.706;2023-04-15T05:37:36;4.30;93.80
4433;DHT22;2229;48.708;9.706;2023-04-15T05:40:05;4.30;93.80
4433;DHT22;2229;48.708;9.706;2023-04-15T05:42:36;4.40;93.90
4433;DHT22;2229;48.708;9.706;2023-04-15T05:45:06;4.50;94.10
4433;DHT22;2229;48.708;9.706;2023-04-15T05:47:35;4.60;94.20
4433;DHT22;2229;48.708;9.706;2023-04-15T05:50:06;4.70;94.30
4433;DHT22;2229;48.708;9.706;2023-04-15T05:52:37;4.80;94.30
4433;DHT22;2229;48.708;9.706;2023-04-15T05:55:07;4.90;94.40
4433;DHT22;2229;48.708;9.706;2023-04-15T05:57:36;5.00;94.50
4433;DHT22;2229;48.708;9.706;2023-04-15T06:00:05;5.10;94.60
4433;DHT22;2229;48.708;9.706;2023-04-15T06:02:37;5.30;94.80
4433;DHT22;2229;48.708;9.706;2023-04-15T06:05:06;5.40;94.90
4433;DHT22;2229;48.708;9.706;2023-04-15T06:07:38;5.50;95.00
4433;DHT22;2229;48.708;9.706;2023-04-15T06:10:07;5.70;94.90
4433;DHT22;2229;48.708;9.706;2023-04-15T06:12:36;5.80;94.70
4433;DHT22;2229;48.708;9.706;2023-04-15T06:15:05;5.90;94.70
4433;DHT22;2229;48.708;9.706;2023-04-15T06:17:36;6.00;94.60
4433;DHT22;2229;48.708;9.706;2023-04-15T06:20:05;6.20;94.50
4433;DHT22;2229;48.708;9.706;2023-04-15T06:22:37;6.30;94.40
4433;DHT22;2229;48.708;9.706;2023-04-15T06:25:07;6.50;94.30
4433;DHT22;2229;48.708;9.706;2023-04-15T06:27:36;6.70;94.20
4433;DHT22;2229;48.708;9.706;2023-04-15T06:30:06;6.90;93.90
4433;DHT22;2229;48.708;9.706;2023-04-15T06:32:34;7.00;93.60
4433;DHT22;2229;48.708;9.706;2023-04-15T06:35:03;7.20;93.40
4433;DHT22;2229;48.708;9.706;2023-04-15T06:37:32;7.30;93.30
4433;DHT22;2229;48.708;9.706;2023-04-15T06:40:03;7.40;93.10
4433;DHT22;2229;48.708;9.706;2023-04-15T06:42:32;7.60;92.90
4433;DHT22;2229;48.708;9.706;2023-04-15T06:45:00;7.70;92.60
4433;DHT22;2229;48.708;9.706;2023-04-15T06:47:29;7.80;92.40
4433;DHT22;2229;48.708;9.706;2023-04-15T06:49:57;7.90;92.10
4433;DHT22;2229;48.708;9.706;2023-04-15T06:52:26;8.00;91.80
4433;DHT22;2229;48.708;9.706;2023-04-15T06:54:54;8.10;91.60
4433;DHT22;2229;48.708;9.706;2023-04-15T06:57:31;8.00;91.40
4433;DHT22;2229;48.708;9.706;2023-04-15T06:59:59;8.30;91.20
4433;DHT22;2229;48.708;9.706;2023-04-15T07:02:28;8.50;91.30
4433;DHT22;2229;48.708;9.706;2023-04-15T07:04:56;8.70;90.90
4433;DHT22;2229;48.708;9.706;2023-04-15T07:07:25;8.80;90.50
4433;DHT22;2229;48.708;9.706;2023-04-15T07:09:56;9.00;90.00
4433;DHT22;2229;48.708;9.706;2023-04-15T07:12:25;9.20;89.80
4433;DHT22;2229;48.708;9.706;2023-04-15T07:14:55;9.40;89.00
4433;DHT22;2229;48.708;9.706;2023-04-15T07:17:24;9.60;88.60
4433;DHT22;2229;48.708;9.706;2023-04-15T07:19:52;9.70;88.00
4433;DHT22;2229;48.708;9.706;2023-04-15T07:22:21;9.90;87.50
4433;DHT22;2229;48.708;9.706;2023-04-15T07:24:50;10.00;85.40
4433;DHT22;2229;48.708;9.706;2023-04-15T07:27:18;10.20;84.90
4433;DHT22;2229;48.708;9.706;2023-04-15T07:29:47;10.40;84.60
4433;DHT22;2229;48.708;9.706;2023-04-15T07:32:19;10.60;84.30
4433;DHT22;2229;48.708;9.706;2023-04-15T07:34:47;10.80;83.40
4433;DHT22;2229;48.708;9.706;2023-04-15T07:37:16;11.00;83.10
4433;DHT22;2229;48.708;9.706;2023-04-15T07:39:45;11.30;81.80
4433;DHT22;2229;48.708;9.706;2023-04-15T07:42:14;11.80;80.90
4433;DHT22;2229;48.708;9.706;2023-04-15T07:44:42;12.30;78.40
4433;DHT22;2229;48.708;9.706;2023-04-15T07:47:11;12.90;77.50
4433;DHT22;2229;48.708;9.706;2023-04-15T07:49:42;13.50;75.40
4433;DHT22;2229;48.708;9.706;2023-04-15T07:52:10;14.00;73.30
4433;DHT22;2229;48.708;9.706;2023-04-15T07:54:38;14.30;71.40
4433;DHT22;2229;48.708;9.706;2023-04-15T07:57:08;14.50;69.80
4433;DHT22;2229;48.708;9.706;2023-04-15T07:59:37;15.00;68.70
4433;DHT22;2229;48.708;9.706;2023-04-15T08:02:06;15.60;68.40
4433;DHT22;2229;48.708;9.706;2023-04-15T08:04:34;16.10;65.80
4433;DHT22;2229;48.708;9.706;2023-04-15T08:07:06;16.60;63.70
4433;DHT22;2229;48.708;9.706;2023-04-15T08:09:34;17.20;62.90
4433;DHT22;2229;48.708;9.706;2023-04-15T08:12:03;17.70;62.40
4433;DHT22;2229;48.708;9.706;2023-04-15T08:14:31;18.10;59.90
4433;DHT22;2229;48.708;9.706;2023-04-15T08:17:00;18.50;59.50
4433;DHT22;2229;48.708;9.706;2023-04-15T08:19:29;19.10;59.80
4433;DHT22;2229;48.708;9.706;2023-04-15T08:21:58;19.70;58.10
4433;DHT22;2229;48.708;9.706;2023-04-15T08:24:30;20.10;56.00
4433;DHT22;2229;48.708;9.706;2023-04-15T08:27:00;20.30;55.10
4433;DHT22;2229;48.708;9.706;2023-04-15T08:29:31;20.50;55.10
4433;DHT22;2229;48.708;9.706;2023-04-15T08:32:00;20.50;54.90
4433;DHT22;2229;48.708;9.706;2023-04-15T08:34:29;20.60;53.50
4433;DHT22;2229;48.708;9.706;2023-04-15T08:36:58;20.60;53.00
4433;DHT22;2229;48.708;9.706;2023-04-15T08:39:28;20.80;53.00
4433;DHT22;2229;48.708;9.706;2023-04-15T08:42:00;21.10;52.40
4433;DHT22;2229;48.708;9.706;2023-04-15T08:44:31;21.10;51.20
4433;DHT22;2229;48.708;9.706;2023-04-15T08:47:01;21.10;51.70
4433;DHT22;2229;48.708;9.706;2023-04-15T08:49:31;21.20;50.90
4433;DHT22;2229;48.708;9.706;2023-04-15T08:52:01;21.30;51.60
4433;DHT22;2229;48.708;9.706;2023-04-15T08:54:32;21.40;51.40
4433;DHT22;2229;48.708;9.706;2023-04-15T08:57:01;21.60;51.60
4433;DHT22;2229;48.708;9.706;2023-04-15T08:59:30;21.50;50.50
4433;DHT22;2229;48.708;9.706;2023-04-15T09:02:03;21.10;51.30
4433;DHT22;2229;48.708;9.706;2023-04-15T09:04:32;20.50;51.20
4433;DHT22;2229;48.708;9.706;2023-04-15T09:07:01;19.90;51.40
4433;DHT22;2229;48.708;9.706;2023-04-15T09:09:32;19.40;52.20
4433;DHT22;2229;48.708;9.706;2023-04-15T09:12:02;18.80;52.90
4433;DHT22;2229;48.708;9.706;2023-04-15T09:14:31;18.20;53.70
4433;DHT22;2229;48.708;9.706;2023-04-15T09:17:02;17.80;53.60
4433;DHT22;2229;48.708;9.706;2023-04-15T09:19:32;17.60;54.00
4433;DHT22;2229;48.708;9.706;2023-04-15T09:22:01;17.40;55.00
4433;DHT22;2229;48.708;9.706;2023-04-15T09:24:36;17.30;54.90
4433;DHT22;2229;48.708;9.706;2023-04-15T09:27:05;17.40;55.50
4433;DHT22;2229;48.708;9.706;2023-04-15T09:29:34;17.70;56.10
4433;DHT22;2229;48.708;9.706;2023-04-15T09:32:12;18.30;55.50
4433;DHT22;2229;48.708;9.706;2023-04-15T09:34:42;19.10;54.90
4433;DHT22;2229;48.708;9.706;2023-04-15T09:37:10;19.70;54.00
4433;DHT22;2229;48.708;9.706;2023-04-15T09:39:49;20.30;53.50
4433;DHT22;2229;48.708;9.706;2023-04-15T09:42:18;20.80;53.00
4433;DHT22;2229;48.708;9.706;2023-04-15T09:44:50;21.10;52.90
4433;DHT22;2229;48.708;9.706;2023-04-15T09:47:28;21.10;50.80
4433;DHT22;2229;48.708;9.706;2023-04-15T09:49:58;20.90;50.60
4433;DHT22;2229;48.708;9.706;2023-04-15T09:52:27;20.60;50.20
4433;DHT22;2229;48.708;9.706;2023-04-15T09:54:58;20.20;50.10
4433;DHT22;2229;48.708;9.706;2023-04-15T09:57:33;20.10;50.40
4433;DHT22;2229;48.708;9.706;2023-04-15T10:00:02;20.00;50.30
4433;DHT22;2229;48.708;9.706;2023-04-15T10:02:34;19.80;50.80
4433;DHT22;2229;48.708;9.706;2023-04-15T10:05:03;19.70;51.20
4433;DHT22;2229;48.708;9.706;2023-04-15T10:07:32;19.50;50.00
4433;DHT22;2229;48.708;9.706;2023-04-15T10:10:06;19.10;49.50
4433;DHT22;2229;48.708;9.706;2023-04-15T10:12:36;18.80;50.60
4433;DHT22;2229;48.708;9.706;2023-04-15T10:15:06;18.40;51.90
4433;DHT22;2229;48.708;9.706;2023-04-15T10:17:37;18.10;52.40
4433;DHT22;2229;48.708;9.706;2023-04-15T10:20:10;17.80;52.40
4433;DHT22;2229;48.708;9.706;2023-04-15T10:22:39;17.40;51.80
4433;DHT22;2229;48.708;9.706;2023-04-15T10:25:11;17.20;52.30
4433;DHT22;2229;48.708;9.706;2023-04-15T10:27:39;17.10;52.60
4433;DHT22;2229;48.708;9.706;2023-04-15T10:30:10;17.20;54.10
4433;DHT22;2229;48.708;9.706;2023-04-15T10:32:40;17.20;53.20
4433;DHT22;2229;48.708;9.706;2023-04-15T10:35:10;17.20;53.40
4433;DHT22;2229;48.708;9.706;2023-04-15T10:37:39;17.20;53.50
4433;DHT22;2229;48.708;9.706;2023-04-15T10:40:24;17.20;53.90
4433;DHT22;2229;48.708;9.706;2023-04-15T10:42:54;17.20;53.20
4433;DHT22;2229;48.708;9.706;2023-04-15T10:45:25;17.20;53.60
4433;DHT22;2229;48.708;9.706;2023-04-15T10:48:00;17.20;53.80
4433;DHT22;2229;48.708;9.706;2023-04-15T10:50:30;17.00;53.20
4433;DHT22;2229;48.708;9.706;2023-04-15T10:53:02;16.90;53.20
4433;DHT22;2229;48.708;9.706;2023-04-15T10:55:33;16.80;54.20
4433;DHT22;2229;48.708;9.706;2023-04-15T10:58:02;16.60;55.50
4433;DHT22;2229;48.708;9.706;2023-04-15T11:00:31;16.50;54.50
4433;DHT22;2229;48.708;9.706;2023-04-15T11:03:05;16.20;54.60
4433;DHT22;2229;48.708;9.706;2023-04-15T11:05:50;16.10;54.60
4433;DHT22;2229;48.708;9.706;2023-04-15T11:08:21;15.90;54.80
4433;DHT22;2229;48.708;9.706;2023-04-15T11:11:10;15.80;56.10
4433;DHT22;2229;48.708;9.706;2023-04-15T11:13:47;15.70;55.70
4433;DHT22;2229;48.708;9.706;2023-04-15T11:16:16;15.70;56.00
4433;DHT22;2229;48.708;9.706;2023-04-15T11:18:55;15.80;56.40
4433;DHT22;2229;48.708;9.706;2023-04-15T11:21:50;15.80;56.20
4433;DHT22;2229;48.708;9.706;2023-04-15T11:24:23;15.80;56.20
4433;DHT22;2229;48.708;9.706;2023-04-15T11:26:58;15.70;56.60
4433;DHT22;2229;48.708;9.706;2023-04-15T11:29:31;15.60;56.90
4433;DHT22;2229;48.708;9.706;2023-04-15T11:32:08;15.50;56.70
4433;DHT22;2229;48.708;9.706;2023-04-15T11:34:37;15.50;56.60
4433;DHT22;2229;48.708;9.706;2023-04-15T11:37:06;15.40;55.30
4433;DHT22;2229;48.708;9.706;2023-04-15T11:39:36;15.40;55.30
4433;DHT22;2229;48.708;9.706;2023-04-15T11:42:15;15.40;55.60
4433;DHT22;2229;48.708;9.706;2023-04-15T11:44:44;15.50;55.80
4433;DHT22;2229;48.708;9.706;2023-04-15T11:47:21;15.50;55.40
4433;DHT22;2229;48.708;9.706;2023-04-15T11:49:50;15.60;55.30
4433;DHT22;2229;48.708;9.706;2023-04-15T11:52:17;15.70;55.30
4433;DHT22;2229;48.708;9.706;2023-04-15T11:54:44;15.70;55.30
4433;DHT22;2229;48.708;9.706;2023-04-15T11:57:13;15.70;55.30
4433;DHT22;2229;48.708;9.706;2023-04-15T11:59:43;15.80;55.60
4433;DHT22;2229;48.708;9.706;2023-04-15T12:02:11;15.80;55.50
4433;DHT22;2229;48.708;9.706;2023-04-15T12:04:38;15.80;55.70
4433;DHT22;2229;48.708;9.706;2023-04-15T12:07:06;15.70;55.80
4433;DHT22;2229;48.708;9.706;2023-04-15T12:09:36;15.70;55.90
4433;DHT22;2229;48.708;9.706;2023-04-15T12:12:04;15.60;55.80
4433;DHT22;2229;48.708;9.706;2023-04-15T12:14:33;15.60;56.20
4433;DHT22;2229;48.708;9.706;2023-04-15T12:17:02;15.50;56.70
4433;DHT22;2229;48.708;9.706;2023-04-15T12:19:33;15.40;56.90
4433;DHT22;2229;48.708;9.706;2023-04-15T12:22:03;15.40;57.00
4433;DHT22;2229;48.708;9.706;2023-04-15T12:24:32;15.40;56.90
4433;DHT22;2229;48.708;9.706;2023-04-15T12:27:02;15.40;57.10
4433;DHT22;2229;48.708;9.706;2023-04-15T12:29:30;15.40;57.40
4433;DHT22;2229;48.708;9.706;2023-04-15T12:32:05;15.40;57.70
4433;DHT22;2229;48.708;9.706;2023-04-15T12:34:33;15.40;58.10
4433;DHT22;2229;48.708;9.706;2023-04-15T12:37:04;15.40;57.80
4433;DHT22;2229;48.708;9.706;2023-04-15T12:39:34;15.30;57.70
4433;DHT22;2229;48.708;9.706;2023-04-15T12:42:05;15.30;57.60
4433;DHT22;2229;48.708;9.706;2023-04-15T12:44:33;15.30;56.00
4433;DHT22;2229;48.708;9.706;2023-04-15T12:47:02;15.20;54.60
4433;DHT22;2229;48.708;9.706;2023-04-15T12:49:30;15.20;53.80
4433;DHT22;2229;48.708;9.706;2023-04-15T12:51:59;15.10;53.10
4433;DHT22;2229;48.708;9.706;2023-04-15T12:54:27;15.00;52.60
4433;DHT22;2229;48.708;9.706;2023-04-15T12:56:57;14.90;51.40
4433;DHT22;2229;48.708;9.706;2023-04-15T12:59:25;14.70;50.60
4433;DHT22;2229;48.708;9.706;2023-04-15T13:01:53;14.70;50.90
4433;DHT22;2229;48.708;9.706;2023-04-15T13:04:21;14.60;51.30
4433;DHT22;2229;48.708;9.706;2023-04-15T13:06:49;14.50;52.30
4433;DHT22;2229;48.708;9.706;2023-04-15T13:09:16;14.40;53.10
4433;DHT22;2229;48.708;9.706;2023-04-15T13:11:44;14.20;54.00
4433;DHT22;2229;48.708;9.706;2023-04-15T13:14:11;14.00;56.20
4433;DHT22;2229;48.708;9.706;2023-04-15T13:16:38;13.70;56.80
4433;DHT22;2229;48.708;9.706;2023-04-15T13:19:05;13.50;57.80
4433;DHT22;2229;48.708;9.706;2023-04-15T13:21:34;13.20;58.10
4433;DHT22;2229;48.708;9.706;2023-04-15T13:24:01;13.00;58.70
4433;DHT22;2229;48.708;9.706;2023-04-15T13:26:28;12.90;59.00
4433;DHT22;2229;48.708;9.706;2023-04-15T13:28:56;12.70;59.30
4433;DHT22;2229;48.708;9.706;2023-04-15T13:31:23;12.60;59.00
4433;DHT22;2229;48.708;9.706;2023-04-15T13:33:51;12.50;59.00
4433;DHT22;2229;48.708;9.706;2023-04-15T13:36:18;12.40;58.80
4433;DHT22;2229;48.708;9.706;2023-04-15T13:38:47;12.30;57.60
4433;DHT22;2229;48.708;9.706;2023-04-15T13:41:14;12.30;56.30
4433;DHT22;2229;48.708;9.706;2023-04-15T13:43:41;12.30;56.80
4433;DHT22;2229;48.708;9.706;2023-04-15T13:46:09;12.30;58.10
4433;DHT22;2229;48.708;9.706;2023-04-15T13:48:36;12.20;58.10
4433;DHT22;2229;48.708;9.706;2023-04-15T13:51:04;12.10;57.50
4433;DHT22;2229;48.708;9.706;2023-04-15T13:53:31;11.90;55.80
4433;DHT22;2229;48.708;9.706;2023-04-15T13:55:59;11.80;56.00
4433;DHT22;2229;48.708;9.706;2023-04-15T13:58:26;11.70;55.80
4433;DHT22;2229;48.708;9.706;2023-04-15T14:00:54;11.70;55.30
4433;DHT22;2229;48.708;9.706;2023-04-15T14:03:21;11.70;54.70
4433;DHT22;2229;48.708;9.706;2023-04-15T14:05:48;11.80;54.30
4433;DHT22;2229;48.708;9.706;2023-04-15T14:08:20;11.70;54.80
4433;DHT22;2229;48.708;9.706;2023-04-15T14:10:48;11.80;55.50
4433;DHT22;2229;48.708;9.706;2023-04-15T14:13:16;11.80;54.70
4433;DHT22;2229;48.708;9.706;2023-04-15T14:15:44;11.80;54.60
4433;DHT22;2229;48.708;9.706;2023-04-15T14:18:12;11.80;54.50
4433;DHT22;2229;48.708;9.706;2023-04-15T14:20:39;11.80;54.80
4433;DHT22;2229;48.708;9.706;2023-04-15T14:23:06;11.80;55.20
4433;DHT22;2229;48.708;9.706;2023-04-15T14:25:34;11.80;56.00
4433;DHT22;2229;48.708;9.706;2023-04-15T14:28:01;11.80;58.10
4433;DHT22;2229;48.708;9.706;2023-04-15T14:30:29;12.00;58.50
4433;DHT22;2229;48.708;9.706;2023-04-15T14:32:57;12.10;56.90
4433;DHT22;2229;48.708;9.706;2023-04-15T14:35:25;12.10;56.50
4433;DHT22;2229;48.708;9.706;2023-04-15T14:37:52;12.10;56.60
4433;DHT22;2229;48.708;9.706;2023-04-15T14:40:20;12.10;56.20
4433;DHT22;2229;48.708;9.706;2023-04-15T14:42:47;12.10;55.60
4433;DHT22;2229;48.708;9.706;2023-04-15T14:45:14;12.10;56.00
4433;DHT22;2229;48.708;9.706;2023-04-15T14:47:43;12.20;55.40
4433;DHT22;2229;48.708;9.706;2023-04-15T14:50:11;12.20;55.10
4433;DHT22;2229;48.708;9.706;2023-04-15T14:52:38;12.20;54.60
4433;DHT22;2229;48.708;9.706;2023-04-15T14:55:06;12.20;54.60
4433;DHT22;2229;48.708;9.706;2023-04-15T14:57:35;12.20;54.50
4433;DHT22;2229;48.708;9.706;2023-04-15T15:00:03;12.20;54.30
4433;DHT22;2229;48.708;9.706;2023-04-15T15:02:32;12.20;54.40
4433;DHT22;2229;48.708;9.706;2023-04-15T15:05:02;12.20;54.80
4433;DHT22;2229;48.708;9.706;2023-04-15T15:07:29;12.30;55.10
4433;DHT22;2229;48.708;9.706;2023-04-15T15:09:57;12.30;55.60
4433;DHT22;2229;48.708;9.706;2023-04-15T15:12:24;12.30;55.80
4433;DHT22;2229;48.708;9.706;2023-04-15T15:14:51;12.30;55.90
4433;DHT22;2229;48.708;9.706;2023-04-15T15:17:19;12.30;56.10
4433;DHT22;2229;48.708;9.706;2023-04-15T15:19:46;12.20;56.30
4433;DHT22;2229;48.708;9.706;2023-04-15T15:22:15;12.20;56.70
4433;DHT22;2229;48.708;9.706;2023-04-15T15:24:42;12.10;56.90
4433;DHT22;2229;48.708;9.706;2023-04-15T15:27:09;12.10;57.10
4433;DHT22;2229;48.708;9.706;2023-04-15T15:29:36;12.10;57.40
4433;DHT22;2229;48.708;9.706;2023-04-15T15:32:04;12.10;57.40
4433;DHT22;2229;48.708;9.706;2023-04-15T15:34:31;12.10;57.70
4433;DHT22;2229;48.708;9.706;2023-04-15T15:36:59;12.10;58.00
4433;DHT22;2229;48.708;9.706;2023-04-15T15:39:28;12.10;58.20
4433;DHT22;2229;48.708;9.706;2023-04-15T15:41:56;12.10;58.60
4433;DHT22;2229;48.708;9.706;2023-04-15T15:44:24;12.10;58.80
4433;DHT22;2229;48.708;9.706;2023-04-15T15:46:51;12.00;58.90
4433;DHT22;2229;48.708;9.706;2023-04-15T15:49:18;12.10;59.10
4433;DHT22;2229;48.708;9.706;2023-04-15T15:51:47;12.00;59.20
4433;DHT22;2229;48.708;9.706;2023-04-15T15:54:14;12.00;59.70
4433;DHT22;2229;48.708;9.706;2023-04-15T15:56:43;12.00;60.20
4433;DHT22;2229;48.708;9.706;2023-04-15T15:59:10;12.00;60.70
4433;DHT22;2229;48.708;9.706;2023-04-15T16:01:37;11.90;61.30
4433;DHT22;2229;48.708;9.706;2023-04-15T16:04:04;11.90;62.00
4433;DHT22;2229;48.708;9.706;2023-04-15T16:06:31;11.90;62.60
4433;DHT22;2229;48.708;9.706;2023-04-15T16:08:59;11.90;63.40
4433;DHT22;2229;48.708;9.706;2023-04-15T16:11:27;11.90;64.70
4433;DHT22;2229;48.708;9.706;2023-04-15T16:13:56;11.80;66.10
4433;DHT22;2229;48.708;9.706;2023-04-15T16:16:23;11.80;67.70
4433;DHT22;2229;48.708;9.706;2023-04-15T16:18:50;11.70;68.90
4433;DHT22;2229;48.708;9.706;2023-04-15T16:21:17;11.60;70.00
4433;DHT22;2229;48.708;9.706;2023-04-15T16:23:45;11.60;70.90